createdAt,value
2019-05-25T00:00:44.383Z,68.80
2019-05-25T00:04:49.066Z,68.90
2019-05-25T00:08:53.672Z,69.10
2019-05-25T00:12:58.348Z,69.20
2019-05-25T00:17:02.977Z,69.30
2019-05-25T00:21:07.640Z,67.20
2019-05-25T00:25:12.387Z,66.90
2019-05-25T00:29:16.992Z,66.50
2019-05-25T00:33:21.653Z,67.50
2019-05-25T00:37:26.285Z,67.40
2019-05-25T00:41:30.988Z,67.40
2019-05-25T00:45:35.662Z,67.40
2019-05-25T00:49:40.289Z,67.30
2019-05-25T00:53:44.922Z,66.00
2019-05-25T00:57:49.573Z,67.30
2019-05-25T01:01:54.245Z,65.90
2019-05-25T01:05:58.886Z,66.90
2019-05-25T01:10:03.559Z,67.20
2019-05-25T01:14:08.219Z,66.00
2019-05-25T01:18:12.841Z,67.30
2019-05-25T01:22:17.525Z,65.70
2019-05-25T01:26:22.179Z,67.00
2019-05-25T01:30:26.815Z,66.50
2019-05-25T01:34:31.489Z,68.00
2019-05-25T01:38:36.122Z,66.80
2019-05-25T01:42:40.842Z,66.40
2019-05-25T01:46:45.455Z,67.60
2019-05-25T01:50:50.093Z,68.30
2019-05-25T01:54:59.723Z,68.00
2019-05-25T01:59:01.033Z,67.60
2019-05-25T02:03:05.697Z,68.70
2019-05-25T02:07:10.403Z,68.40
2019-05-25T02:11:14.981Z,68.40
2019-05-25T02:15:19.611Z,67.80
2019-05-25T02:19:24.255Z,69.30
2019-05-25T02:23:28.963Z,68.90
2019-05-25T02:27:33.562Z,68.10
2019-05-25T02:31:38.224Z,69.70
2019-05-25T02:35:42.926Z,68.30
2019-05-25T02:39:47.546Z,68.90
2019-05-25T02:43:52.215Z,68.70
2019-05-25T02:47:57.203Z,68.80
2019-05-25T02:52:01.848Z,69.20
2019-05-25T02:56:06.542Z,67.90
2019-05-25T03:00:11.790Z,69.10
2019-05-25T03:04:16.558Z,68.70
2019-05-25T03:08:21.436Z,68.30
2019-05-25T03:12:26.164Z,68.50
2019-05-25T03:16:30.818Z,68.90
2019-05-25T03:20:35.472Z,69.30
2019-05-25T03:24:40.089Z,68.80
2019-05-25T03:28:44.759Z,68.80
2019-05-25T03:32:49.553Z,69.10
2019-05-25T03:36:54.163Z,67.60
2019-05-25T03:40:58.838Z,69.00
2019-05-25T03:45:03.482Z,68.40
2019-05-25T03:49:08.089Z,68.80
2019-05-25T03:53:12.763Z,69.60
2019-05-25T03:57:17.426Z,70.90
2019-05-25T04:01:22.077Z,70.10
2019-05-25T04:05:26.753Z,68.50
2019-05-25T04:09:31.424Z,70.60
2019-05-25T04:13:36.177Z,72.10
2019-05-25T04:17:40.905Z,70.50
2019-05-25T04:21:45.557Z,72.60
2019-05-25T04:25:50.362Z,71.30
2019-05-25T04:29:55.014Z,72.30
2019-05-25T04:33:59.722Z,70.20
2019-05-25T04:38:04.507Z,69.90
2019-05-25T04:42:10.078Z,70.20
2019-05-25T04:46:14.781Z,70.70
2019-05-25T04:50:19.637Z,70.80
2019-05-25T04:54:24.298Z,71.50
2019-05-25T04:58:28.980Z,71.20
2019-05-25T05:02:33.650Z,71.30
2019-05-25T05:06:38.307Z,72.30
2019-05-25T05:10:43.080Z,72.60
2019-05-25T05:14:47.722Z,71.20
2019-05-25T05:18:52.369Z,72.70
2019-05-25T05:22:57.093Z,73.20
2019-05-25T05:27:01.681Z,73.30
2019-05-25T05:31:22.465Z,74.90
2019-05-25T05:35:12.791Z,73.80
2019-05-25T05:39:17.676Z,74.10
2019-05-25T05:43:22.824Z,76.60
2019-05-25T05:47:29.084Z,74.80
2019-05-25T05:51:35.896Z,73.50
2019-05-25T05:55:40.412Z,76.80
2019-05-25T05:59:44.972Z,76.10
2019-05-25T06:03:58.432Z,73.40
2019-05-25T06:08:02.982Z,73.90
2019-05-25T06:12:07.543Z,72.70
2019-05-25T06:16:12.049Z,75.20
2019-05-25T06:20:16.800Z,74.90
2019-05-25T06:24:21.345Z,74.10
2019-05-25T06:28:25.892Z,73.90
2019-05-25T06:32:30.465Z,74.00
2019-05-25T06:36:34.993Z,73.00
2019-05-25T06:40:39.535Z,73.20
2019-05-25T06:44:46.081Z,72.70
2019-05-25T06:48:50.781Z,72.70
2019-05-25T06:52:57.839Z,75.00
2019-05-25T06:57:01.702Z,74.30
2019-05-25T07:01:06.247Z,73.70
2019-05-25T07:05:11.858Z,73.80
2019-05-25T07:09:16.392Z,74.00
2019-05-25T07:13:20.967Z,74.30
2019-05-25T07:17:25.484Z,73.10
2019-05-25T07:21:30.040Z,72.90
2019-05-25T07:25:34.597Z,72.40
2019-05-25T07:29:39.140Z,72.00
2019-05-25T07:33:43.699Z,71.80
2019-05-25T07:37:48.237Z,70.70
2019-05-25T07:41:53.869Z,71.10
2019-05-25T07:45:59.828Z,69.80
2019-05-25T07:50:04.720Z,69.20
2019-05-25T07:54:09.300Z,70.20
2019-05-25T07:58:18.163Z,71.30
2019-05-25T08:02:20.016Z,69.50
2019-05-25T08:06:24.588Z,71.10
2019-05-25T08:10:29.335Z,68.30
2019-05-25T08:14:33.926Z,67.80
2019-05-25T08:18:38.438Z,66.20
2019-05-25T08:22:42.995Z,65.60
2019-05-25T08:26:47.536Z,65.70
2019-05-25T08:30:52.105Z,65.10
2019-05-25T08:34:56.667Z,65.20
2019-05-25T08:39:01.176Z,65.20
2019-05-25T08:43:05.828Z,68.30
2019-05-25T08:47:10.373Z,66.00
2019-05-25T08:51:14.962Z,62.80
2019-05-25T08:55:19.508Z,62.70
2019-05-25T08:59:24.015Z,61.50
2019-05-25T09:03:28.565Z,62.50
2019-05-25T09:07:33.102Z,62.60
2019-05-25T09:11:37.755Z,62.50
2019-05-25T09:15:42.237Z,63.50
2019-05-25T09:19:46.779Z,63.50
2019-05-25T09:23:51.320Z,63.30
2019-05-25T09:27:55.866Z,64.20
2019-05-25T09:32:00.397Z,64.50
2019-05-25T09:36:04.961Z,64.80
2019-05-25T09:40:09.692Z,64.50
2019-05-25T09:44:14.230Z,64.30
2019-05-25T09:48:18.868Z,64.80
2019-05-25T09:52:23.457Z,65.90
2019-05-25T09:56:28.001Z,65.80
2019-05-25T10:00:32.513Z,65.10
2019-05-25T10:04:37.063Z,64.70
2019-05-25T10:08:41.625Z,65.20
2019-05-25T10:12:46.587Z,96.50
2019-05-25T10:16:51.143Z,93.80
2019-05-25T10:20:55.637Z,93.60
2019-05-25T10:25:00.181Z,93.60
2019-05-25T10:29:04.725Z,93.90
2019-05-25T10:33:09.274Z,93.90
2019-05-25T10:37:13.824Z,93.70
2019-05-25T10:41:18.327Z,92.90
2019-05-25T10:45:22.873Z,92.20
2019-05-25T10:49:27.429Z,92.50
2019-05-25T10:53:32.029Z,92.90
2019-05-25T10:57:36.584Z,93.30
2019-05-25T11:01:41.097Z,93.20
2019-05-25T11:05:45.633Z,92.30
2019-05-25T11:09:50.180Z,92.70
2019-05-25T11:13:54.729Z,92.60
2019-05-25T11:17:59.286Z,92.90
2019-05-25T11:22:03.777Z,92.80
2019-05-25T11:26:08.317Z,93.10
2019-05-25T11:30:14.874Z,92.60
2019-05-25T11:34:19.427Z,92.60
2019-05-25T11:38:23.972Z,92.30
2019-05-25T11:42:28.481Z,92.30
2019-05-25T11:46:33.050Z,92.00
2019-05-25T11:50:37.602Z,92.10
2019-05-25T11:54:42.190Z,91.80
2019-05-25T11:58:47.864Z,91.70
2019-05-25T12:02:52.485Z,91.60
2019-05-25T12:06:57.027Z,92.00
2019-05-25T12:11:01.585Z,91.80
2019-05-25T12:15:06.576Z,92.00
2019-05-25T12:19:14.715Z,91.40
2019-05-25T12:23:17.265Z,92.20
2019-05-25T12:27:21.815Z,92.10
2019-05-25T12:31:26.340Z,91.90
2019-05-25T12:35:30.881Z,92.00
2019-05-25T12:39:35.444Z,91.80
2019-05-25T12:43:39.959Z,92.30
2019-05-25T12:47:44.500Z,92.70
2019-05-25T12:51:49.073Z,93.20
2019-05-25T12:55:53.616Z,94.90
2019-05-25T13:00:13.867Z,95.30
2019-05-25T13:04:04.319Z,94.80
2019-05-25T13:08:08.863Z,95.20
2019-05-25T13:12:13.473Z,96.20
2019-05-25T13:16:18.109Z,65.80
2019-05-25T13:20:22.618Z,67.00
2019-05-25T13:24:27.167Z,66.10
2019-05-25T13:28:31.704Z,66.60
2019-05-25T13:32:36.249Z,64.70
2019-05-25T13:36:40.799Z,64.40
2019-05-25T13:40:45.366Z,65.60
2019-05-25T13:44:49.872Z,65.10
2019-05-25T13:48:54.572Z,65.60
2019-05-25T13:52:59.160Z,64.60
2019-05-25T13:57:03.691Z,65.00
2019-05-25T14:01:08.253Z,64.60
2019-05-25T14:05:15.048Z,64.30
2019-05-25T14:09:19.588Z,64.80
2019-05-25T14:13:24.133Z,65.60
2019-05-25T14:17:28.677Z,64.90
2019-05-25T14:21:33.240Z,64.90
2019-05-25T14:25:37.739Z,65.40
2019-05-25T14:29:42.269Z,65.10
2019-05-25T14:33:46.902Z,65.00
2019-05-25T14:37:51.492Z,63.90
2019-05-25T14:41:56.056Z,64.20
2019-05-25T14:46:00.600Z,64.20
2019-05-25T14:50:05.508Z,63.90
2019-05-25T14:54:10.091Z,63.20
2019-05-25T14:58:14.632Z,63.30
2019-05-25T15:02:19.182Z,63.30
2019-05-25T15:06:23.686Z,64.30
2019-05-25T15:10:28.438Z,64.30
2019-05-25T15:14:32.976Z,63.80
2019-05-25T15:18:37.520Z,64.00
2019-05-25T15:22:42.065Z,64.40
2019-05-25T15:26:46.567Z,64.50
2019-05-25T15:30:51.112Z,64.00
2019-05-25T15:34:55.656Z,64.20
2019-05-25T15:39:00.197Z,64.40
2019-05-25T15:43:04.711Z,65.00
2019-05-25T15:47:09.261Z,64.50
2019-05-25T15:51:13.811Z,64.00
2019-05-25T15:55:18.469Z,64.50
2019-05-25T15:59:23.777Z,63.00
2019-05-25T16:03:28.509Z,63.40
2019-05-25T16:07:33.249Z,62.50
2019-05-25T16:11:37.809Z,63.80
2019-05-25T16:15:42.378Z,63.70
2019-05-25T16:19:46.920Z,63.90
2019-05-25T16:23:51.475Z,64.50
2019-05-25T16:27:56.005Z,64.40
2019-05-25T16:32:00.634Z,64.50
2019-05-25T16:36:05.226Z,64.10
2019-05-25T16:40:10.666Z,63.90
2019-05-25T16:44:15.221Z,63.60
2019-05-25T16:48:19.754Z,61.80
2019-05-25T16:52:24.347Z,63.30
2019-05-25T16:56:28.895Z,63.30
2019-05-25T17:00:33.451Z,63.00
2019-05-25T17:04:38.022Z,62.70
2019-05-25T17:08:42.527Z,63.10
2019-05-25T17:12:47.152Z,63.20
2019-05-25T17:16:51.731Z,62.40
2019-05-25T17:20:56.270Z,63.20
2019-05-25T17:25:00.785Z,63.40
2019-05-25T17:29:05.332Z,63.70
2019-05-25T17:33:09.923Z,62.80
2019-05-25T17:37:14.476Z,63.30
2019-05-25T17:41:19.018Z,63.20
2019-05-25T17:45:23.572Z,63.20
2019-05-25T17:49:28.260Z,63.10
2019-05-25T17:53:32.844Z,63.30
2019-05-25T17:57:37.389Z,63.50
2019-05-25T18:01:41.945Z,63.40
2019-05-25T18:05:47.379Z,63.20
2019-05-25T18:09:51.890Z,63.50
2019-05-25T18:13:56.474Z,62.60
2019-05-25T18:18:01.013Z,63.60
2019-05-25T18:22:05.665Z,63.70
2019-05-25T18:26:10.213Z,63.70
2019-05-25T18:30:15.111Z,63.60
2019-05-25T18:34:22.353Z,63.00
2019-05-25T18:38:25.935Z,63.90
2019-05-25T18:42:30.850Z,63.70
2019-05-25T18:46:35.421Z,63.70
2019-05-25T18:50:39.928Z,63.70
2019-05-25T18:54:44.504Z,63.00
2019-05-25T18:58:49.057Z,64.00
2019-05-25T19:02:53.591Z,64.00
2019-05-25T19:06:58.136Z,64.10
2019-05-25T19:11:02.642Z,64.00
2019-05-25T19:15:07.968Z,64.00
2019-05-25T19:19:12.505Z,64.10
2019-05-25T19:23:17.036Z,64.10
2019-05-25T19:27:21.585Z,64.20
2019-05-25T19:31:26.101Z,64.20
2019-05-25T19:35:30.711Z,64.20
2019-05-25T19:39:35.202Z,64.20
2019-05-25T19:43:39.781Z,64.30
2019-05-25T19:47:44.325Z,64.30
2019-05-25T19:51:48.944Z,64.50
2019-05-25T19:55:53.527Z,64.40
2019-05-25T19:59:58.067Z,64.50
2019-05-25T20:04:02.676Z,64.50
2019-05-25T20:08:07.237Z,64.50
2019-05-25T20:12:11.752Z,64.50
2019-05-25T20:16:16.300Z,64.60
2019-05-25T20:20:21.135Z,64.70
2019-05-25T20:24:25.679Z,64.60
2019-05-25T20:28:30.215Z,64.60
2019-05-25T20:32:34.712Z,64.70
2019-05-25T20:36:39.287Z,64.70
2019-05-25T20:40:43.825Z,64.80
2019-05-25T20:44:48.395Z,65.00
2019-05-25T20:48:52.942Z,65.00
2019-05-25T20:52:57.489Z,65.00
2019-05-25T20:57:02.030Z,65.20
2019-05-25T21:01:06.584Z,64.60
2019-05-25T21:05:11.135Z,65.20
2019-05-25T21:09:15.677Z,65.30
2019-05-25T21:13:20.282Z,65.40
2019-05-25T21:17:24.821Z,65.00
2019-05-25T21:21:29.452Z,65.60
2019-05-25T21:25:34.068Z,65.80
2019-05-25T21:29:38.669Z,65.70
2019-05-25T21:33:43.194Z,65.00
2019-05-25T21:37:47.757Z,65.70
2019-05-25T21:41:52.353Z,65.80
2019-05-25T21:45:56.940Z,69.30
2019-05-25T21:50:01.957Z,69.80
2019-05-25T21:54:06.565Z,69.80
2019-05-25T21:58:11.149Z,70.00
2019-05-25T22:02:15.728Z,69.90
2019-05-25T22:06:24.386Z,69.60
2019-05-25T22:10:26.513Z,69.40
2019-05-25T22:14:31.083Z,69.40
2019-05-25T22:18:35.645Z,69.50
2019-05-25T22:22:40.379Z,69.60
2019-05-25T22:26:44.955Z,69.90
2019-05-25T22:30:49.547Z,70.30
2019-05-25T22:34:54.084Z,70.10
2019-05-25T22:38:58.690Z,71.10
2019-05-25T22:43:03.295Z,70.20
2019-05-25T22:47:07.952Z,70.50
2019-05-25T22:51:12.514Z,70.70
2019-05-25T22:55:17.298Z,70.80
2019-05-25T22:59:21.880Z,70.90
2019-05-25T23:03:26.453Z,71.30
2019-05-25T23:07:31.020Z,71.50
2019-05-25T23:11:35.602Z,71.40
2019-05-25T23:15:40.169Z,72.00
2019-05-25T23:19:44.728Z,71.80
2019-05-25T23:23:49.401Z,71.90
2019-05-25T23:27:53.981Z,71.70
2019-05-25T23:31:58.576Z,71.70
2019-05-25T23:36:03.109Z,72.10
2019-05-25T23:40:07.852Z,72.40
2019-05-25T23:44:12.410Z,72.60
2019-05-25T23:48:16.978Z,72.80
2019-05-25T23:52:21.614Z,72.80
2019-05-25T23:56:26.202Z,73.10
